sensor_id;sensor_type;location;lat;lon;timestamp;temperature;humidity
41924;DHT22;27613;48.116;11.656;2023-03-31T07:24:56;8.90;99.90
41924;DHT22;27613;48.116;11.656;2023-03-31T07:27:22;8.50;99.90
41924;DHT22;27613;48.116;11.656;2023-03-31T07:29:48;8.40;99.90
41924;DHT22;27613;48.116;11.656;2023-03-31T07:32:15;8.40;99.90
41924;DHT22;27613;48.116;11.656;2023-03-31T07:34:40;8.40;99.90
41924;DHT22;27613;48.116;11.656;2023-03-31T07:37:06;8.30;99.90
41924;DHT22;27613;48.116;11.656;2023-03-31T07:39:32;8.40;99.90
41924;DHT22;27613;48.116;11.656;2023-03-31T07:41:59;8.40;99.90
41924;DHT22;27613;48.116;11.656;2023-03-31T07:44:25;8.40;99.90
41924;DHT22;27613;48.116;11.656;2023-03-31T07:46:51;8.40;99.90
41924;DHT22;27613;48.116;11.656;2023-03-31T07:49:16;8.40;99.90
41924;DHT22;27613;48.116;11.656;2023-03-31T07:51:42;8.40;99.90
41924;DHT22;27613;48.116;11.656;2023-03-31T07:54:07;8.40;99.90
41924;DHT22;27613;48.116;11.656;2023-03-31T07:56:33;8.40;99.90
41924;DHT22;27613;48.116;11.656;2023-03-31T07:58:58;8.40;99.90
41924;DHT22;27613;48.116;11.656;2023-03-31T08:01:24;8.40;99.90
41924;DHT22;27613;48.116;11.656;2023-03-31T08:03:53;8.50;99.90
41924;DHT22;27613;48.116;11.656;2023-03-31T08:06:21;8.60;99.90
41924;DHT22;27613;48.116;11.656;2023-03-31T08:08:48;8.70;99.90
41924;DHT22;27613;48.116;11.656;2023-03-31T08:11:14;8.90;99.90
41924;DHT22;27613;48.116;11.656;2023-03-31T08:13:40;9.00;99.90
41924;DHT22;27613;48.116;11.656;2023-03-31T08:16:06;9.10;99.90
41924;DHT22;27613;48.116;11.656;2023-03-31T08:18:31;9.10;99.90
41924;DHT22;27613;48.116;11.656;2023-03-31T08:20:57;9.10;99.90
41924;DHT22;27613;48.116;11.656;2023-03-31T08:23:23;9.00;99.90
41924;DHT22;27613;48.116;11.656;2023-03-31T08:25:48;9.00;99.90
41924;DHT22;27613;48.116;11.656;2023-03-31T08:28:14;8.90;99.90
41924;DHT22;27613;48.116;11.656;2023-03-31T08:30:40;8.90;99.90
41924;DHT22;27613;48.116;11.656;2023-03-31T08:33:06;8.90;99.90
41924;DHT22;27613;48.116;11.656;2023-03-31T08:35:37;8.90;99.90
41924;DHT22;27613;48.116;11.656;2023-03-31T08:38:03;8.90;99.90
41924;DHT22;27613;48.116;11.656;2023-03-31T08:40:30;8.90;99.90
41924;DHT22;27613;48.116;11.656;2023-03-31T08:45:54;8.90;99.90
41924;DHT22;27613;48.116;11.656;2023-03-31T08:48:28;8.90;99.90
41924;DHT22;27613;48.116;11.656;2023-03-31T08:51:02;8.90;99.90
41924;DHT22;27613;48.116;11.656;2023-03-31T08:53:44;8.80;99.90
41924;DHT22;27613;48.116;11.656;2023-03-31T08:56:16;8.80;99.90
41924;DHT22;27613;48.116;11.656;2023-03-31T08:58:44;8.90;99.90
41924;DHT22;27613;48.116;11.656;2023-03-31T09:03:55;9.50;99.90
41924;DHT22;27613;48.116;11.656;2023-03-31T09:06:35;9.30;99.90
41924;DHT22;27613;48.116;11.656;2023-03-31T09:09:04;9.30;99.90
41924;DHT22;27613;48.116;11.656;2023-03-31T09:11:54;9.30;99.90
41924;DHT22;27613;48.116;11.656;2023-03-31T09:17:18;9.80;99.90
41924;DHT22;27613;48.116;11.656;2023-03-31T09:22:33;9.80;99.90
41924;DHT22;27613;48.116;11.656;2023-03-31T09:27:34;10.00;99.90
41924;DHT22;27613;48.116;11.656;2023-03-31T09:32:34;10.80;99.90
41924;DHT22;27613;48.116;11.656;2023-03-31T09:35:17;11.40;99.90
41924;DHT22;27613;48.116;11.656;2023-03-31T09:37:45;12.60;99.90
41924;DHT22;27613;48.116;11.656;2023-03-31T09:40:23;13.70;99.90
41924;DHT22;27613;48.116;11.656;2023-03-31T09:43:01;14.00;99.90
41924;DHT22;27613;48.116;11.656;2023-03-31T09:45:29;13.60;99.90
41924;DHT22;27613;48.116;11.656;2023-03-31T09:47:57;12.50;99.90
41924;DHT22;27613;48.116;11.656;2023-03-31T09:50:25;12.20;99.90
41924;DHT22;27613;48.116;11.656;2023-03-31T09:52:54;12.90;99.90
41924;DHT22;27613;48.116;11.656;2023-03-31T09:57:46;12.50;99.90
41924;DHT22;27613;48.116;11.656;2023-03-31T10:00:13;12.10;99.90
41924;DHT22;27613;48.116;11.656;2023-03-31T10:02:53;12.00;99.90
41924;DHT22;27613;48.116;11.656;2023-03-31T10:05:37;12.00;99.90
41924;DHT22;27613;48.116;11.656;2023-03-31T10:08:21;12.20;99.90
41924;DHT22;27613;48.116;11.656;2023-03-31T10:10:55;12.20;99.90
41924;DHT22;27613;48.116;11.656;2023-03-31T10:13:26;12.20;99.90
41924;DHT22;27613;48.116;11.656;2023-03-31T10:16:04;12.10;99.90
41924;DHT22;27613;48.116;11.656;2023-03-31T10:18:41;12.00;99.90
41924;DHT22;27613;48.116;11.656;2023-03-31T10:21:20;12.20;99.90
41924;DHT22;27613;48.116;11.656;2023-03-31T10:23:47;13.00;99.90
41924;DHT22;27613;48.116;11.656;2023-03-31T10:26:17;13.40;99.90
41924;DHT22;27613;48.116;11.656;2023-03-31T10:28:47;13.50;99.90
41924;DHT22;27613;48.116;11.656;2023-03-31T10:31:13;13.30;99.90
41924;DHT22;27613;48.116;11.656;2023-03-31T10:33:43;12.80;99.90
41924;DHT22;27613;48.116;11.656;2023-03-31T10:36:27;12.50;99.90
41924;DHT22;27613;48.116;11.656;2023-03-31T10:38:53;12.50;99.90
41924;DHT22;27613;48.116;11.656;2023-03-31T10:41:30;14.80;99.90
41924;DHT22;27613;48.116;11.656;2023-03-31T10:43:57;15.20;99.90
41924;DHT22;27613;48.116;11.656;2023-03-31T10:46:47;15.40;99.90
41924;DHT22;27613;48.116;11.656;2023-03-31T10:49:36;15.80;98.50
41924;DHT22;27613;48.116;11.656;2023-03-31T10:52:02;14.60;99.90
41924;DHT22;27613;48.116;11.656;2023-03-31T10:54:28;14.40;99.90
41924;DHT22;27613;48.116;11.656;2023-03-31T10:56:58;14.70;99.90
41924;DHT22;27613;48.116;11.656;2023-03-31T11:21:59;12.60;99.90
41924;DHT22;27613;48.116;11.656;2023-03-31T11:27:54;11.90;99.90
41924;DHT22;27613;48.116;11.656;2023-03-31T11:30:32;11.10;99.90
41924;DHT22;27613;48.116;11.656;2023-03-31T11:33:12;10.50;99.90
41924;DHT22;27613;48.116;11.656;2023-03-31T11:36:06;9.80;99.90
41924;DHT22;27613;48.116;11.656;2023-03-31T11:41:43;8.60;99.90
41924;DHT22;27613;48.116;11.656;2023-03-31T11:44:15;8.50;99.90
41924;DHT22;27613;48.116;11.656;2023-03-31T11:49:25;8.70;99.90
41924;DHT22;27613;48.116;11.656;2023-03-31T11:54:33;9.30;99.90
41924;DHT22;27613;48.116;11.656;2023-03-31T11:57:06;9.30;99.90
41924;DHT22;27613;48.116;11.656;2023-03-31T11:59:36;9.30;99.90
41924;DHT22;27613;48.116;11.656;2023-03-31T12:04:42;9.70;99.90
41924;DHT22;27613;48.116;11.656;2023-03-31T12:07:23;10.00;99.90
41924;DHT22;27613;48.116;11.656;2023-03-31T12:09:57;10.40;99.90
41924;DHT22;27613;48.116;11.656;2023-03-31T12:12:34;10.80;99.90
41924;DHT22;27613;48.116;11.656;2023-03-31T12:15:16;11.70;99.90
41924;DHT22;27613;48.116;11.656;2023-03-31T12:17:46;12.50;99.90
41924;DHT22;27613;48.116;11.656;2023-03-31T12:20:32;12.40;99.90
41924;DHT22;27613;48.116;11.656;2023-03-31T12:23:00;13.00;99.90
41924;DHT22;27613;48.116;11.656;2023-03-31T12:28:15;12.30;99.90
41924;DHT22;27613;48.116;11.656;2023-03-31T12:30:42;12.10;99.90
41924;DHT22;27613;48.116;11.656;2023-03-31T12:33:18;11.90;99.90
41924;DHT22;27613;48.116;11.656;2023-03-31T12:38:54;12.50;99.90
41924;DHT22;27613;48.116;11.656;2023-03-31T12:44:29;12.40;99.90
41924;DHT22;27613;48.116;11.656;2023-03-31T12:47:21;12.00;99.90
41924;DHT22;27613;48.116;11.656;2023-03-31T13:08:57;13.80;99.90
41924;DHT22;27613;48.116;11.656;2023-03-31T13:14:30;12.70;95.50
41924;DHT22;27613;48.116;11.656;2023-03-31T13:19:45;12.20;91.20
41924;DHT22;27613;48.116;11.656;2023-03-31T13:22:35;12.20;90.10
41924;DHT22;27613;48.116;11.656;2023-03-31T13:27:55;11.80;90.40
41924;DHT22;27613;48.116;11.656;2023-03-31T13:35:48;11.50;90.60
41924;DHT22;27613;48.116;11.656;2023-03-31T13:58:37;14.30;81.90
41924;DHT22;27613;48.116;11.656;2023-03-31T14:07:08;16.50;72.80
41924;DHT22;27613;48.116;11.656;2023-03-31T14:09:40;15.70;72.50
41924;DHT22;27613;48.116;11.656;2023-03-31T14:12:31;14.50;73.50
41924;DHT22;27613;48.116;11.656;2023-03-31T14:14:57;13.90;78.80
41924;DHT22;27613;48.116;11.656;2023-03-31T14:17:37;13.20;83.30
41924;DHT22;27613;48.116;11.656;2023-03-31T14:22:52;12.20;88.10
41924;DHT22;27613;48.116;11.656;2023-03-31T14:25:33;12.20;89.40
41924;DHT22;27613;48.116;11.656;2023-03-31T14:38:50;12.00;91.10
41924;DHT22;27613;48.116;11.656;2023-03-31T14:41:20;11.80;91.20
41924;DHT22;27613;48.116;11.656;2023-03-31T14:43:56;11.60;93.70
41924;DHT22;27613;48.116;11.656;2023-03-31T14:46:22;11.40;93.70
41924;DHT22;27613;48.116;11.656;2023-03-31T14:48:50;11.20;98.10
41924;DHT22;27613;48.116;11.656;2023-03-31T14:51:27;10.70;99.90
41924;DHT22;27613;48.116;11.656;2023-03-31T14:53:57;10.20;99.50
41924;DHT22;27613;48.116;11.656;2023-03-31T14:56:37;10.10;95.40
41924;DHT22;27613;48.116;11.656;2023-03-31T14:59:04;10.10;94.40
41924;DHT22;27613;48.116;11.656;2023-03-31T15:01:32;10.10;94.50
41924;DHT22;27613;48.116;11.656;2023-03-31T15:04:04;9.90;99.50
41924;DHT22;27613;48.116;11.656;2023-03-31T15:06:31;9.80;99.40
41924;DHT22;27613;48.116;11.656;2023-03-31T15:09:01;9.90;97.70
41924;DHT22;27613;48.116;11.656;2023-03-31T15:11:29;10.20;98.70
41924;DHT22;27613;48.116;11.656;2023-03-31T15:13:56;11.50;95.30
41924;DHT22;27613;48.116;11.656;2023-03-31T15:16:40;12.70;93.30
41924;DHT22;27613;48.116;11.656;2023-03-31T15:19:20;12.50;90.60
41924;DHT22;27613;48.116;11.656;2023-03-31T15:21:54;12.10;90.50
41924;DHT22;27613;48.116;11.656;2023-03-31T15:24:20;12.00;91.10
41924;DHT22;27613;48.116;11.656;2023-03-31T15:27:18;11.70;90.90
41924;DHT22;27613;48.116;11.656;2023-03-31T15:29:48;11.80;90.30
41924;DHT22;27613;48.116;11.656;2023-03-31T15:32:25;11.80;89.40
41924;DHT22;27613;48.116;11.656;2023-03-31T15:34:52;11.90;87.90
41924;DHT22;27613;48.116;11.656;2023-03-31T15:37:24;12.00;89.20
41924;DHT22;27613;48.116;11.656;2023-03-31T15:39:54;11.60;90.20
41924;DHT22;27613;48.116;11.656;2023-03-31T15:42:21;11.70;90.20
41924;DHT22;27613;48.116;11.656;2023-03-31T15:44:53;11.60;90.10
41924;DHT22;27613;48.116;11.656;2023-03-31T15:47:22;11.70;90.40
41924;DHT22;27613;48.116;11.656;2023-03-31T15:50:12;12.00;89.70
41924;DHT22;27613;48.116;11.656;2023-03-31T15:52:47;11.60;90.60
41924;DHT22;27613;48.116;11.656;2023-03-31T15:57:49;11.50;90.60
41924;DHT22;27613;48.116;11.656;2023-03-31T16:03:00;11.50;90.90
41924;DHT22;27613;48.116;11.656;2023-03-31T16:05:50;11.70;90.20
41924;DHT22;27613;48.116;11.656;2023-03-31T16:08:27;11.60;90.40
41924;DHT22;27613;48.116;11.656;2023-03-31T16:11:00;11.60;90.50
41924;DHT22;27613;48.116;11.656;2023-03-31T16:13:27;11.60;90.30
41924;DHT22;27613;48.116;11.656;2023-03-31T16:15:54;12.40;87.00
41924;DHT22;27613;48.116;11.656;2023-03-31T16:18:31;12.70;85.40
41924;DHT22;27613;48.116;11.656;2023-03-31T16:21:00;12.70;84.80
41924;DHT22;27613;48.116;11.656;2023-03-31T16:23:30;12.90;84.70
41924;DHT22;27613;48.116;11.656;2023-03-31T16:25:56;13.20;83.00
41924;DHT22;27613;48.116;11.656;2023-03-31T16:28:25;13.00;84.10
41924;DHT22;27613;48.116;11.656;2023-03-31T16:30:52;13.40;82.20
41924;DHT22;27613;48.116;11.656;2023-03-31T16:33:20;13.80;81.10
41924;DHT22;27613;48.116;11.656;2023-03-31T16:35:49;13.90;80.30
41924;DHT22;27613;48.116;11.656;2023-03-31T16:38:18;13.60;80.30
41924;DHT22;27613;48.116;11.656;2023-03-31T16:40:46;12.90;81.70
41924;DHT22;27613;48.116;11.656;2023-03-31T16:43:14;12.20;84.00
41924;DHT22;27613;48.116;11.656;2023-03-31T16:45:44;12.00;85.80
41924;DHT22;27613;48.116;11.656;2023-03-31T16:48:09;11.80;86.70
41924;DHT22;27613;48.116;11.656;2023-03-31T16:50:35;11.70;88.20
41924;DHT22;27613;48.116;11.656;2023-03-31T16:53:01;11.50;89.20
41924;DHT22;27613;48.116;11.656;2023-03-31T16:55:28;11.50;90.00
41924;DHT22;27613;48.116;11.656;2023-03-31T16:57:56;11.40;90.00
41924;DHT22;27613;48.116;11.656;2023-03-31T17:00:23;11.30;90.30
41924;DHT22;27613;48.116;11.656;2023-03-31T17:02:49;11.20;90.50
41924;DHT22;27613;48.116;11.656;2023-03-31T17:05:15;10.40;98.30
41924;DHT22;27613;48.116;11.656;2023-03-31T17:07:40;9.20;99.90
41924;DHT22;27613;48.116;11.656;2023-03-31T17:10:07;8.90;99.90
41924;DHT22;27613;48.116;11.656;2023-03-31T17:12:32;8.60;99.90
41924;DHT22;27613;48.116;11.656;2023-03-31T17:14:58;8.10;99.90
41924;DHT22;27613;48.116;11.656;2023-03-31T17:17:23;8.00;99.90
41924;DHT22;27613;48.116;11.656;2023-03-31T17:19:49;8.00;99.90
41924;DHT22;27613;48.116;11.656;2023-03-31T17:22:15;7.90;99.90
41924;DHT22;27613;48.116;11.656;2023-03-31T17:24:40;7.90;99.90
41924;DHT22;27613;48.116;11.656;2023-03-31T17:27:06;7.80;99.90
41924;DHT22;27613;48.116;11.656;2023-03-31T17:29:32;7.80;99.90
41924;DHT22;27613;48.116;11.656;2023-03-31T17:31:57;7.70;99.90
41924;DHT22;27613;48.116;11.656;2023-03-31T17:34:23;7.70;99.90
41924;DHT22;27613;48.116;11.656;2023-03-31T17:36:48;7.70;99.90
41924;DHT22;27613;48.116;11.656;2023-03-31T17:39:15;7.70;99.90
41924;DHT22;27613;48.116;11.656;2023-03-31T17:41:41;7.70;99.90
41924;DHT22;27613;48.116;11.656;2023-03-31T17:44:06;7.70;99.90
41924;DHT22;27613;48.116;11.656;2023-03-31T17:46:33;7.70;99.90
41924;DHT22;27613;48.116;11.656;2023-03-31T17:48:59;7.70;99.90
41924;DHT22;27613;48.116;11.656;2023-03-31T17:51:25;7.60;99.90
41924;DHT22;27613;48.116;11.656;2023-03-31T17:53:52;7.60;99.90
41924;DHT22;27613;48.116;11.656;2023-03-31T17:56:17;7.60;99.90
41924;DHT22;27613;48.116;11.656;2023-03-31T17:58:43;7.60;99.90
41924;DHT22;27613;48.116;11.656;2023-03-31T18:01:10;7.70;99.90
41924;DHT22;27613;48.116;11.656;2023-03-31T18:03:36;7.70;99.90
41924;DHT22;27613;48.116;11.656;2023-03-31T18:06:06;7.70;99.90
41924;DHT22;27613;48.116;11.656;2023-03-31T18:08:33;7.70;99.90
41924;DHT22;27613;48.116;11.656;2023-03-31T18:11:00;7.80;99.90
41924;DHT22;27613;48.116;11.656;2023-03-31T18:13:26;7.80;99.90
41924;DHT22;27613;48.116;11.656;2023-03-31T18:15:52;7.80;99.90
41924;DHT22;27613;48.116;11.656;2023-03-31T18:18:18;7.90;99.90
41924;DHT22;27613;48.116;11.656;2023-03-31T18:20:44;7.90;99.90
41924;DHT22;27613;48.116;11.656;2023-03-31T18:23:11;8.00;99.90
41924;DHT22;27613;48.116;11.656;2023-03-31T18:25:36;8.00;99.90
41924;DHT22;27613;48.116;11.656;2023-03-31T18:28:02;8.10;99.90
41924;DHT22;27613;48.116;11.656;2023-03-31T18:30:29;8.00;99.90
41924;DHT22;27613;48.116;11.656;2023-03-31T18:32:54;8.00;99.90
41924;DHT22;27613;48.116;11.656;2023-03-31T18:35:20;8.00;99.90
41924;DHT22;27613;48.116;11.656;2023-03-31T18:37:47;8.10;99.90
41924;DHT22;27613;48.116;11.656;2023-03-31T18:40:13;8.10;99.90
41924;DHT22;27613;48.116;11.656;2023-03-31T18:42:39;8.10;99.90
41924;DHT22;27613;48.116;11.656;2023-03-31T18:45:05;8.20;99.90
41924;DHT22;27613;48.116;11.656;2023-03-31T18:47:31;8.20;99.90
41924;DHT22;27613;48.116;11.656;2023-03-31T18:49:57;8.10;99.90
41924;DHT22;27613;48.116;11.656;2023-03-31T18:52:22;8.10;99.90
41924;DHT22;27613;48.116;11.656;2023-03-31T18:54:48;8.10;99.90
41924;DHT22;27613;48.116;11.656;2023-03-31T18:57:15;8.10;99.90
41924;DHT22;27613;48.116;11.656;2023-03-31T18:59:40;8.10;99.90
41924;DHT22;27613;48.116;11.656;2023-03-31T19:02:06;8.10;99.90
41924;DHT22;27613;48.116;11.656;2023-03-31T19:04:32;8.20;99.90
41924;DHT22;27613;48.116;11.656;2023-03-31T19:06:57;8.10;99.90
41924;DHT22;27613;48.116;11.656;2023-03-31T19:09:23;8.10;99.90
41924;DHT22;27613;48.116;11.656;2023-03-31T19:11:51;8.00;99.90
41924;DHT22;27613;48.116;11.656;2023-03-31T19:14:17;7.90;99.90
41924;DHT22;27613;48.116;11.656;2023-03-31T19:16:43;7.90;99.90
41924;DHT22;27613;48.116;11.656;2023-03-31T19:19:10;7.90;99.90
41924;DHT22;27613;48.116;11.656;2023-03-31T19:21:36;7.90;99.90
41924;DHT22;27613;48.116;11.656;2023-03-31T19:24:03;7.90;99.90
41924;DHT22;27613;48.116;11.656;2023-03-31T19:26:29;7.90;99.90
41924;DHT22;27613;48.116;11.656;2023-03-31T19:28:55;7.90;99.90
41924;DHT22;27613;48.116;11.656;2023-03-31T19:31:21;7.90;99.90
41924;DHT22;27613;48.116;11.656;2023-03-31T19:33:46;8.00;99.90
41924;DHT22;27613;48.116;11.656;2023-03-31T19:36:13;7.90;99.90
41924;DHT22;27613;48.116;11.656;2023-03-31T19:38:38;8.00;99.90
41924;DHT22;27613;48.116;11.656;2023-03-31T19:41:04;8.00;99.90
41924;DHT22;27613;48.116;11.656;2023-03-31T19:43:30;7.90;99.90
41924;DHT22;27613;48.116;11.656;2023-03-31T19:45:56;7.90;99.90
41924;DHT22;27613;48.116;11.656;2023-03-31T19:48:23;8.00;99.90
41924;DHT22;27613;48.116;11.656;2023-03-31T19:50:52;8.10;99.90
41924;DHT22;27613;48.116;11.656;2023-03-31T19:53:19;8.10;99.90
41924;DHT22;27613;48.116;11.656;2023-03-31T19:55:59;8.10;99.90
41924;DHT22;27613;48.116;11.656;2023-03-31T19:58:26;8.10;99.90
41924;DHT22;27613;48.116;11.656;2023-03-31T20:00:53;8.20;99.90
41924;DHT22;27613;48.116;11.656;2023-03-31T20:03:19;8.20;99.90
41924;DHT22;27613;48.116;11.656;2023-03-31T20:05:45;8.20;99.90
41924;DHT22;27613;48.116;11.656;2023-03-31T20:08:11;8.20;99.90
41924;DHT22;27613;48.116;11.656;2023-03-31T20:10:36;8.20;99.90
41924;DHT22;27613;48.116;11.656;2023-03-31T20:13:02;8.20;99.90
41924;DHT22;27613;48.116;11.656;2023-03-31T20:15:27;8.30;99.90
41924;DHT22;27613;48.116;11.656;2023-03-31T20:17:53;8.30;99.90
41924;DHT22;27613;48.116;11.656;2023-03-31T20:20:21;8.10;99.90
41924;DHT22;27613;48.116;11.656;2023-03-31T20:22:46;8.20;99.90
41924;DHT22;27613;48.116;11.656;2023-03-31T20:25:12;8.40;99.90
41924;DHT22;27613;48.116;11.656;2023-03-31T20:27:37;8.30;99.90
41924;DHT22;27613;48.116;11.656;2023-03-31T20:30:03;8.40;99.90
41924;DHT22;27613;48.116;11.656;2023-03-31T20:32:29;8.30;99.90
41924;DHT22;27613;48.116;11.656;2023-03-31T20:34:54;8.30;99.90
41924;DHT22;27613;48.116;11.656;2023-03-31T20:37:20;8.30;99.90
41924;DHT22;27613;48.116;11.656;2023-03-31T20:39:45;8.40;99.90
41924;DHT22;27613;48.116;11.656;2023-03-31T20:42:12;8.40;99.90
41924;DHT22;27613;48.116;11.656;2023-03-31T20:44:38;8.40;99.90
41924;DHT22;27613;48.116;11.656;2023-03-31T20:47:04;8.40;99.90
41924;DHT22;27613;48.116;11.656;2023-03-31T20:49:29;8.40;99.90
41924;DHT22;27613;48.116;11.656;2023-03-31T20:51:55;8.30;99.90
41924;DHT22;27613;48.116;11.656;2023-03-31T20:54:21;8.50;99.90
41924;DHT22;27613;48.116;11.656;2023-03-31T20:56:46;8.40;99.90
41924;DHT22;27613;48.116;11.656;2023-03-31T20:59:13;8.30;99.90
41924;DHT22;27613;48.116;11.656;2023-03-31T21:01:39;8.40;99.90
41924;DHT22;27613;48.116;11.656;2023-03-31T21:04:07;8.30;99.90
41924;DHT22;27613;48.116;11.656;2023-03-31T21:06:44;8.30;99.90
41924;DHT22;27613;48.116;11.656;2023-03-31T21:09:11;8.40;99.90
41924;DHT22;27613;48.116;11.656;2023-03-31T21:11:37;8.40;99.90
41924;DHT22;27613;48.116;11.656;2023-03-31T21:14:05;8.40;99.90
41924;DHT22;27613;48.116;11.656;2023-03-31T21:16:31;8.50;99.90
41924;DHT22;27613;48.116;11.656;2023-03-31T21:18:57;8.40;99.90
41924;DHT22;27613;48.116;11.656;2023-03-31T21:21:24;8.50;99.80
41924;DHT22;27613;48.116;11.656;2023-03-31T21:23:51;8.50;99.90
41924;DHT22;27613;48.116;11.656;2023-03-31T21:26:18;8.50;99.80
41924;DHT22;27613;48.116;11.656;2023-03-31T21:28:44;8.50;99.60
41924;DHT22;27613;48.116;11.656;2023-03-31T21:31:12;8.50;99.80
41924;DHT22;27613;48.116;11.656;2023-03-31T21:33:40;8.60;98.70
41924;DHT22;27613;48.116;11.656;2023-03-31T21:36:11;8.50;98.90
41924;DHT22;27613;48.116;11.656;2023-03-31T21:38:36;8.60;98.30
41924;DHT22;27613;48.116;11.656;2023-03-31T21:41:06;8.60;98.80
41924;DHT22;27613;48.116;11.656;2023-03-31T21:43:32;8.60;98.40
41924;DHT22;27613;48.116;11.656;2023-03-31T21:45:58;8.50;98.50
41924;DHT22;27613;48.116;11.656;2023-03-31T21:48:24;8.50;98.40
41924;DHT22;27613;48.116;11.656;2023-03-31T21:50:51;8.60;98.30
41924;DHT22;27613;48.116;11.656;2023-03-31T21:53:20;8.50;98.50
41924;DHT22;27613;48.116;11.656;2023-03-31T21:55:46;8.50;98.90
41924;DHT22;27613;48.116;11.656;2023-03-31T21:58:12;8.40;99.10
41924;DHT22;27613;48.116;11.656;2023-03-31T22:00:38;8.50;99.20
41924;DHT22;27613;48.116;11.656;2023-03-31T22:03:04;8.30;99.90
41924;DHT22;27613;48.116;11.656;2023-03-31T22:05:31;8.30;99.90
41924;DHT22;27613;48.116;11.656;2023-03-31T22:07:59;8.20;99.90
41924;DHT22;27613;48.116;11.656;2023-03-31T22:10:25;8.20;99.90
41924;DHT22;27613;48.116;11.656;2023-03-31T22:12:51;8.30;99.90
41924;DHT22;27613;48.116;11.656;2023-03-31T22:15:17;8.20;99.90
41924;DHT22;27613;48.116;11.656;2023-03-31T22:17:42;8.10;99.90
41924;DHT22;27613;48.116;11.656;2023-03-31T22:20:08;8.10;99.90
41924;DHT22;27613;48.116;11.656;2023-03-31T22:22:36;8.00;99.90
41924;DHT22;27613;48.116;11.656;2023-03-31T22:25:02;8.10;99.90
41924;DHT22;27613;48.116;11.656;2023-03-31T22:27:28;8.10;99.90
41924;DHT22;27613;48.116;11.656;2023-03-31T22:29:53;8.10;99.90
41924;DHT22;27613;48.116;11.656;2023-03-31T22:32:19;8.10;99.90
41924;DHT22;27613;48.116;11.656;2023-03-31T22:34:45;8.10;99.90
41924;DHT22;27613;48.116;11.656;2023-03-31T22:37:12;8.10;99.90
41924;DHT22;27613;48.116;11.656;2023-03-31T22:39:37;8.10;99.90
41924;DHT22;27613;48.116;11.656;2023-03-31T22:42:03;8.10;99.90
41924;DHT22;27613;48.116;11.656;2023-03-31T22:44:28;8.00;99.90
41924;DHT22;27613;48.116;11.656;2023-03-31T22:46:55;8.00;99.90
41924;DHT22;27613;48.116;11.656;2023-03-31T22:49:20;8.00;99.90
41924;DHT22;27613;48.116;11.656;2023-03-31T22:51:46;8.00;99.90
41924;DHT22;27613;48.116;11.656;2023-03-31T22:54:13;8.00;99.90
41924;DHT22;27613;48.116;11.656;2023-03-31T22:56:40;8.00;99.90
41924;DHT22;27613;48.116;11.656;2023-03-31T22:59:05;8.10;99.90
41924;DHT22;27613;48.116;11.656;2023-03-31T23:01:32;8.20;99.90
41924;DHT22;27613;48.116;11.656;2023-03-31T23:03:57;8.10;99.90
41924;DHT22;27613;48.116;11.656;2023-03-31T23:06:24;8.10;99.90
41924;DHT22;27613;48.116;11.656;2023-03-31T23:08:52;8.10;99.90
41924;DHT22;27613;48.116;11.656;2023-03-31T23:11:17;8.10;99.90
41924;DHT22;27613;48.116;11.656;2023-03-31T23:13:43;8.00;99.90
41924;DHT22;27613;48.116;11.656;2023-03-31T23:16:14;8.00;99.90
41924;DHT22;27613;48.116;11.656;2023-03-31T23:18:41;8.00;99.90
41924;DHT22;27613;48.116;11.656;2023-03-31T23:21:11;8.00;99.90
41924;DHT22;27613;48.116;11.656;2023-03-31T23:23:37;7.90;99.90
41924;DHT22;27613;48.116;11.656;2023-03-31T23:26:04;7.90;99.90
41924;DHT22;27613;48.116;11.656;2023-03-31T23:28:32;7.90;99.90
41924;DHT22;27613;48.116;11.656;2023-03-31T23:30:58;7.90;99.90
41924;DHT22;27613;48.116;11.656;2023-03-31T23:33:25;7.80;99.90
41924;DHT22;27613;48.116;11.656;2023-03-31T23:35:54;7.90;99.90
41924;DHT22;27613;48.116;11.656;2023-03-31T23:38:22;7.80;99.90
41924;DHT22;27613;48.116;11.656;2023-03-31T23:40:47;7.80;99.90
41924;DHT22;27613;48.116;11.656;2023-03-31T23:43:13;7.80;99.90
41924;DHT22;27613;48.116;11.656;2023-03-31T23:45:39;7.80;99.90
41924;DHT22;27613;48.116;11.656;2023-03-31T23:48:04;7.80;99.90
41924;DHT22;27613;48.116;11.656;2023-03-31T23:50:30;7.70;99.90
41924;DHT22;27613;48.116;11.656;2023-03-31T23:52:58;7.70;99.90
41924;DHT22;27613;48.116;11.656;2023-03-31T23:55:27;7.70;99.90
41924;DHT22;27613;48.116;11.656;2023-03-31T23:57:53;7.60;99.90
